Wetterdaten: aktuell Freitag, 22.03.2019 00:58
Datum Zeit Temperatur Luftfeuchte Luftdruck Regen Windgeschw. Windrichtung Windrichtung Taupunkt
22.03.2019 00:58 -0,5 C 47 % 1024 hPa 0,0 l/m 0,0 km/h N 360 -10,4 C
21.03.2019 23:58 -0,3 C 47 % 1024 hPa 0,0 l/m 0,0 km/h N 360 -10,2 C
21.03.2019 22:58 0,3 C 42 % 1024 hPa 0,0 l/m 0,0 km/h N 360 -11,1 C
21.03.2019 21:58 0,8 C 42 % 1024 hPa 0,0 l/m 0,0 km/h N 360 -10,6 C
21.03.2019 20:58 1,7 C 40 % 1024 hPa 0,0 l/m 0,0 km/h N 360 -10,4 C
21.03.2019 19:58 2,7 C 36 % 1024 hPa 0,0 l/m 0,0 km/h N 360 -10,8 C
21.03.2019 18:58 4,4 C 30 % 1024 hPa 0,0 l/m 0,0 km/h N 360 -11,6 C
21.03.2019 17:57 6,6 C 30 % 1024 hPa 0,0 l/m 0,0 km/h N 5 -9,7 C
21.03.2019 16:58 8,3 C 30 % 1024 hPa 0,0 l/m 0,0 km/h N 355 -8,2 C
21.03.2019 15:58 10,0 C 30 % 1024 hPa 0,0 l/m 0,7 km/h N-NO45 30 -6,8 C
21.03.2019 14:58 10,3 C 30 % 1024 hPa 0,0 l/m 8,5 km/h O-NO22.5 65 -6,5 C
21.03.2019 13:57 9,6 C 30 % 1025 hPa 0,0 l/m 1,9 km/h NO22.5 45 -7,1 C
21.03.2019 12:57 9,0 C 30 % 1025 hPa 0,0 l/m 2,0 km/h N-NO45 25 -7,6 C
21.03.2019 11:58 8,5 C 30 % 1026 hPa 0,0 l/m 1,0 km/h O-NO22.5 65 -8,1 C
21.03.2019 10:59 7,3 C 30 % 1026 hPa 0,0 l/m 11,4 km/h O-NO22.5 70 -9,1 C
21.03.2019 09:59 6,2 C 30 % 1026 hPa 0,0 l/m 0,1 km/h O-NO22.5 60 -10,1 C
21.03.2019 08:58 4,8 C 30 % 1026 hPa 0,0 l/m 0,5 km/h NO 50 -11,3 C
21.03.2019 07:58 1,5 C 49 % 1026 hPa 0,0 l/m 0,0 km/h N 10 -8,0 C
21.03.2019 06:59 -3,2 C 54 % 1026 hPa 0,0 l/m 0,0 km/h N 10 -11,2 C
21.03.2019 05:58 -4,3 C 52 % 1025 hPa 0,0 l/m 0,0 km/h N 10 -12,6 C
21.03.2019 04:58 -4,1 C 52 % 1025 hPa 0,0 l/m 0,0 km/h N 10 -12,5 C
21.03.2019 03:59 -3,9 C 51 % 1025 hPa 0,0 l/m 0,0 km/h N 10 -12,5 C
21.03.2019 02:59 -3,8 C 51 % 1026 hPa 0,0 l/m 0,0 km/h N 10 -12,4 C
21.03.2019 01:58 -3,8 C 50 % 1026 hPa 0,0 l/m 0,0 km/h N 10 -12,7 C
21.03.2019 01:03 -3,5 C 48 % 1026 hPa 0,0 l/m 0,0 km/h N 10 -12,9 C
_ Min-Zeit 06:18 08:48 14:03 - 01:03 - - 01:23
Minimum _ -4,4 C 30 % 1024 hPa - 0,0 km/h - - -13,1 C
_ Max-Zeit 14:28 06:28 01:03 01:03 16:13 - - 14:28
Maximum _ 10,4 C 54 % 1026 hPa 0,0 l/m 12,6 km/h
NO
- - -6,4 C
Durchschnitt _ 2,8 C 39 % 1025 hPa #0,0 l/m 0,8 km/h NO - -10,1 C